Check out our new PWSWeather beta!
PWSweather.com
Personal Weather Stations
Station Observations
PICKERING
North Yorkshire, PickeringGB

North YorkshirePickeringGB

Lat: 54.2494, Lon: -0.7725

Elevation: 192

Station Type: Oregon Scientific WMR100

High Low Average
Temperature 61.3°F16.3°C 50.5°F10.3°C 57.5°F14.2°C
Dew Point 57.2°F14.0°C 42.8°F6.0°C 52.0°F11.1°C
Winds 11.5 mph 18.5 kmh Calm Calm 5.0 mph SSE8.0 kmh SSE
Wind Gusts 18.8 mph30.3 kmh -- 8.0 mph12.9 kmh
Humidity 89% 71% 81%
Pressure 29.89 in1012.2 mb 29.36 in994.2 mb -
Precipitation 0.35 in8.9 mm - -
Hour Temp Dew Point Humidity Winds Wind Gusts Pressure Precip Precip Rate Daily Precip Total
12:00 AM 51.8°F11.0°C 42.8°F6.0°C 71% Calm Calm -- 29.89 in1012.2 mb 0.00 in0.0 mm 0.00 in0.0 mm 0.00 in0.0 mm
12:05 AM 51.8°F11.0°C 42.8°F6.0°C 72% 0.1 mph NW0.2 kmh NW 0.9 mph1.4 kmh 29.89 in1012.2 mb 0.00 in0.0 mm 0.00 in0.0 mm 0.00 in0.0 mm
12:10 AM 51.6°F10.9°C 42.8°F6.0°C 72% 0.1 mph NW0.2 kmh NW 0.9 mph1.4 kmh 29.89 in1012.2 mb 0.00 in0.0 mm 0.00 in0.0 mm 0.00 in0.0 mm
12:15 AM 51.6°F10.9°C 42.8°F6.0°C 72% 0.2 mph NW0.3 kmh NW 1.3 mph2.1 kmh 29.89 in1012.2 mb 0.00 in0.0 mm 0.00 in0.0 mm 0.00 in0.0 mm
12:20 AM 51.6°F10.9°C 42.8°F6.0°C 72% 0.3 mph NW0.5 kmh NW 1.3 mph2.1 kmh 29.89 in1012.2 mb 0.00 in0.0 mm 0.00 in0.0 mm 0.00 in0.0 mm
12:25 AM 51.4°F10.8°C 42.8°F6.0°C 72% 0.2 mph NW0.3 kmh NW 1.3 mph2.1 kmh 29.89 in1012.2 mb 0.00 in0.0 mm 0.00 in0.0 mm 0.00 in0.0 mm
12:30 AM 51.4°F10.8°C 42.8°F6.0°C 72% Calm Calm -- 29.89 in1012.2 mb 0.00 in0.0 mm 0.00 in0.0 mm 0.00 in0.0 mm
12:35 AM 51.6°F10.9°C 42.8°F6.0°C 72% Calm Calm -- 29.89 in1012.2 mb 0.00 in0.0 mm 0.00 in0.0 mm 0.00 in0.0 mm
12:40 AM 51.6°F10.9°C 42.8°F6.0°C 72% Calm Calm -- 29.86 in1011.2 mb 0.00 in0.0 mm 0.00 in0.0 mm 0.00 in0.0 mm
12:45 AM 51.4°F10.8°C 42.8°F6.0°C 72% Calm Calm -- 29.86 in1011.2 mb 0.00 in0.0 mm 0.00 in0.0 mm 0.00 in0.0 mm
12:50 AM 51.4°F10.8°C 42.8°F6.0°C 72% 0.4 mph NW0.6 kmh NW 1.3 mph2.1 kmh 29.86 in1011.2 mb 0.00 in0.0 mm 0.00 in0.0 mm 0.00 in0.0 mm
12:55 AM 51.6°F10.9°C 42.8°F6.0°C 73% 0.3 mph NW0.5 kmh NW 1.3 mph2.1 kmh 29.86 in1011.2 mb 0.00 in0.0 mm 0.00 in0.0 mm 0.00 in0.0 mm
01:00 AM 51.4°F10.8°C 42.8°F6.0°C 72% Calm Calm -- 29.86 in1011.2 mb 0.00 in0.0 mm 0.00 in0.0 mm 0.00 in0.0 mm
01:05 AM 51.3°F10.7°C 42.8°F6.0°C 73% Calm Calm -- 29.86 in1011.2 mb 0.00 in0.0 mm 0.00 in0.0 mm 0.00 in0.0 mm
01:10 AM 51.3°F10.7°C 42.8°F6.0°C 73% Calm Calm -- 29.86 in1011.2 mb 0.00 in0.0 mm 0.00 in0.0 mm 0.00 in0.0 mm
01:15 AM 51.1°F10.6°C 42.8°F6.0°C 73% 0.5 mph NW0.8 kmh NW 1.6 mph2.6 kmh 29.86 in1011.2 mb 0.00 in0.0 mm 0.00 in0.0 mm 0.00 in0.0 mm
01:20 AM 51.1°F10.6°C 42.8°F6.0°C 73% 0.6 mph NW1.0 kmh NW 1.6 mph2.6 kmh 29.86 in1011.2 mb 0.00 in0.0 mm 0.00 in0.0 mm 0.00 in0.0 mm
01:25 AM 50.9°F10.5°C 42.8°F6.0°C 73% 0.5 mph NW0.8 kmh NW 1.6 mph2.6 kmh 29.86 in1011.2 mb 0.00 in0.0 mm 0.00 in0.0 mm 0.00 in0.0 mm
01:30 AM 50.9°F10.5°C 42.8°F6.0°C 73% 0.6 mph NW1.0 kmh NW 1.6 mph2.6 kmh 29.86 in1011.2 mb 0.00 in0.0 mm 0.00 in0.0 mm 0.00 in0.0 mm
01:35 AM 50.7°F10.4°C 42.8°F6.0°C 73% 0.1 mph NW0.2 kmh NW 1.3 mph2.1 kmh 29.86 in1011.2 mb 0.00 in0.0 mm 0.00 in0.0 mm 0.00 in0.0 mm
01:40 AM 50.9°F10.5°C 42.8°F6.0°C 74% 0.2 mph NW0.3 kmh NW 1.1 mph1.8 kmh 29.86 in1011.2 mb 0.00 in0.0 mm 0.00 in0.0 mm 0.00 in0.0 mm
01:45 AM 50.7°F10.4°C 42.8°F6.0°C 74% 0.2 mph NW0.3 kmh NW 1.1 mph1.8 kmh 29.86 in1011.2 mb 0.00 in0.0 mm 0.00 in0.0 mm 0.00 in0.0 mm
01:50 AM 50.7°F10.4°C 42.8°F6.0°C 74% Calm Calm -- 29.86 in1011.2 mb 0.00 in0.0 mm 0.00 in0.0 mm 0.00 in0.0 mm
01:55 AM 50.5°F10.3°C 42.8°F6.0°C 74% Calm Calm -- 29.86 in1011.2 mb 0.00 in0.0 mm 0.00 in0.0 mm 0.00 in0.0 mm
02:00 AM 50.5°F10.3°C 42.8°F6.0°C 74% Calm Calm -- 29.86 in1011.2 mb 0.00 in0.0 mm 0.00 in0.0 mm 0.00 in0.0 mm
02:05 AM 50.7°F10.4°C 42.8°F6.0°C 74% Calm Calm -- 29.86 in1011.2 mb 0.00 in0.0 mm 0.00 in0.0 mm 0.00 in0.0 mm
02:10 AM 50.7°F10.4°C 42.8°F6.0°C 74% Calm Calm -- 29.86 in1011.2 mb 0.00 in0.0 mm 0.00 in0.0 mm 0.00 in0.0 mm
02:15 AM 50.7°F10.4°C 42.8°F6.0°C 74% Calm Calm -- 29.86 in1011.2 mb 0.00 in0.0 mm 0.00 in0.0 mm 0.00 in0.0 mm
02:20 AM 50.7°F10.4°C 42.8°F6.0°C 74% Calm Calm -- 29.86 in1011.2 mb 0.00 in0.0 mm 0.00 in0.0 mm 0.00 in0.0 mm
02:25 AM 50.7°F10.4°C 42.8°F6.0°C 74% 0.1 mph NW0.2 kmh NW 1.1 mph1.8 kmh 29.86 in1011.2 mb 0.00 in0.0 mm 0.00 in0.0 mm 0.00 in0.0 mm
02:30 AM 50.9°F10.5°C 44.6°F7.0°C 75% 0.6 mph NW1.0 kmh NW 2.0 mph3.2 kmh 29.86 in1011.2 mb 0.00 in0.0 mm 0.00 in0.0 mm 0.00 in0.0 mm
02:35 AM 50.9°F10.5°C 44.6°F7.0°C 75% 0.8 mph NW1.3 kmh NW 2.0 mph3.2 kmh 29.86 in1011.2 mb 0.00 in0.0 mm 0.00 in0.0 mm 0.00 in0.0 mm
02:40 AM 50.7°F10.4°C 42.8°F6.0°C 75% 0.3 mph N0.5 kmh N 2.0 mph3.2 kmh 29.86 in1011.2 mb 0.00 in0.0 mm 0.00 in0.0 mm 0.00 in0.0 mm
02:45 AM 50.9°F10.5°C 44.6°F7.0°C 75% Calm Calm -- 29.86 in1011.2 mb 0.00 in0.0 mm 0.00 in0.0 mm 0.00 in0.0 mm
02:50 AM 50.7°F10.4°C 42.8°F6.0°C 75% 0.6 mph NNE1.0 kmh NNE 2.5 mph4.0 kmh 29.86 in1011.2 mb 0.00 in0.0 mm 0.00 in0.0 mm 0.00 in0.0 mm
02:55 AM 50.7°F10.4°C 42.8°F6.0°C 75% 1.3 mph NNE2.1 kmh NNE 2.5 mph4.0 kmh 29.86 in1011.2 mb 0.00 in0.0 mm 0.00 in0.0 mm 0.00 in0.0 mm
03:00 AM 50.7°F10.4°C 42.8°F6.0°C 75% 1.2 mph NNE1.9 kmh NNE 2.5 mph4.0 kmh 29.86 in1011.2 mb 0.00 in0.0 mm 0.00 in0.0 mm 0.00 in0.0 mm
03:05 AM 50.7°F10.4°C 42.8°F6.0°C 75% 1.1 mph NNE1.8 kmh NNE 2.5 mph4.0 kmh 29.86 in1011.2 mb 0.00 in0.0 mm 0.00 in0.0 mm 0.00 in0.0 mm
03:10 AM 50.7°F10.4°C 42.8°F6.0°C 75% 0.9 mph NE1.4 kmh NE 2.9 mph4.7 kmh 29.86 in1011.2 mb 0.00 in0.0 mm 0.00 in0.0 mm 0.00 in0.0 mm
03:15 AM 50.9°F10.5°C 44.6°F7.0°C 75% 0.5 mph NNE0.8 kmh NNE 2.9 mph4.7 kmh 29.86 in1011.2 mb 0.00 in0.0 mm 0.00 in0.0 mm 0.00 in0.0 mm
03:20 AM 50.9°F10.5°C 44.6°F7.0°C 75% 0.3 mph NNE0.5 kmh NNE 2.0 mph3.2 kmh 29.86 in1011.2 mb 0.00 in0.0 mm 0.00 in0.0 mm 0.00 in0.0 mm
03:25 AM 50.9°F10.5°C 44.6°F7.0°C 76% 0.2 mph NNE0.3 kmh NNE 0.9 mph1.4 kmh 29.83 in1010.2 mb 0.00 in0.0 mm 0.00 in0.0 mm 0.00 in0.0 mm
03:30 AM 50.9°F10.5°C 44.6°F7.0°C 76% 0.1 mph NNE0.2 kmh NNE 0.9 mph1.4 kmh 29.83 in1010.2 mb 0.00 in0.0 mm 0.00 in0.0 mm 0.00 in0.0 mm
03:35 AM 50.9°F10.5°C 44.6°F7.0°C 76% Calm Calm -- 29.83 in1010.2 mb 0.00 in0.0 mm 0.00 in0.0 mm 0.00 in0.0 mm
03:40 AM 51.1°F10.6°C 44.6°F7.0°C 76% Calm Calm -- 29.83 in1010.2 mb 0.00 in0.0 mm 0.00 in0.0 mm 0.00 in0.0 mm
03:45 AM 51.1°F10.6°C 44.6°F7.0°C 76% 0.8 mph N1.3 kmh N 2.5 mph4.0 kmh 29.83 in1010.2 mb 0.00 in0.0 mm 0.00 in0.0 mm 0.00 in0.0 mm
03:50 AM 51.1°F10.6°C 44.6°F7.0°C 76% 0.8 mph N1.3 kmh N 2.5 mph4.0 kmh 29.83 in1010.2 mb 0.00 in0.0 mm 0.00 in0.0 mm 0.00 in0.0 mm
03:55 AM 51.1°F10.6°C 44.6°F7.0°C 76% 0.1 mph NNE0.2 kmh NNE 0.9 mph1.4 kmh 29.83 in1010.2 mb 0.00 in0.0 mm 0.00 in0.0 mm 0.00 in0.0 mm
04:00 AM 51.1°F10.6°C 44.6°F7.0°C 76% 0.2 mph NE0.3 kmh NE 0.9 mph1.4 kmh 29.83 in1010.2 mb 0.00 in0.0 mm 0.00 in0.0 mm 0.00 in0.0 mm
04:05 AM 51.1°F10.6°C 44.6°F7.0°C 76% 0.1 mph E0.2 kmh E 0.9 mph1.4 kmh 29.83 in1010.2 mb 0.00 in0.0 mm 0.00 in0.0 mm 0.00 in0.0 mm
04:10 AM 51.3°F10.7°C 44.6°F7.0°C 76% Calm Calm -- 29.83 in1010.2 mb 0.00 in0.0 mm 0.00 in0.0 mm 0.00 in0.0 mm
04:15 AM 51.3°F10.7°C 44.6°F7.0°C 77% Calm Calm -- 29.83 in1010.2 mb 0.00 in0.0 mm 0.00 in0.0 mm 0.00 in0.0 mm
04:20 AM 51.4°F10.8°C 44.6°F7.0°C 77% Calm Calm -- 29.83 in1010.2 mb 0.00 in0.0 mm 0.00 in0.0 mm 0.00 in0.0 mm
04:25 AM 51.4°F10.8°C 44.6°F7.0°C 77% Calm Calm -- 29.83 in1010.2 mb 0.00 in0.0 mm 0.00 in0.0 mm 0.00 in0.0 mm
04:30 AM 51.4°F10.8°C 44.6°F7.0°C 77% 0.2 mph N0.3 kmh N 1.1 mph1.8 kmh 29.83 in1010.2 mb 0.00 in0.0 mm 0.00 in0.0 mm 0.00 in0.0 mm
04:35 AM 51.4°F10.8°C 44.6°F7.0°C 77% 0.2 mph N0.3 kmh N 1.1 mph1.8 kmh 29.83 in1010.2 mb 0.00 in0.0 mm 0.00 in0.0 mm 0.00 in0.0 mm
04:40 AM 51.4°F10.8°C 44.6°F7.0°C 77% Calm Calm -- 29.80 in1009.1 mb 0.00 in0.0 mm 0.00 in0.0 mm 0.00 in0.0 mm
04:45 AM 51.6°F10.9°C 44.6°F7.0°C 77% Calm Calm -- 29.80 in1009.1 mb 0.00 in0.0 mm 0.00 in0.0 mm 0.00 in0.0 mm
04:50 AM 51.4°F10.8°C 44.6°F7.0°C 77% 0.3 mph N0.5 kmh N 2.0 mph3.2 kmh 29.80 in1009.1 mb 0.00 in0.0 mm 0.00 in0.0 mm 0.00 in0.0 mm
04:55 AM 51.6°F10.9°C 44.6°F7.0°C 77% 0.7 mph N1.1 kmh N 2.0 mph3.2 kmh 29.80 in1009.1 mb 0.00 in0.0 mm 0.00 in0.0 mm 0.00 in0.0 mm
05:00 AM 51.6°F10.9°C 44.6°F7.0°C 77% 0.3 mph N0.5 kmh N 1.6 mph2.6 kmh 29.80 in1009.1 mb 0.00 in0.0 mm 0.00 in0.0 mm 0.00 in0.0 mm
05:05 AM 51.6°F10.9°C 44.6°F7.0°C 77% 0.2 mph N0.3 kmh N 1.6 mph2.6 kmh 29.80 in1009.1 mb 0.00 in0.0 mm 0.00 in0.0 mm 0.00 in0.0 mm
05:10 AM 51.6°F10.9°C 44.6°F7.0°C 77% 0.2 mph E0.3 kmh E 1.6 mph2.6 kmh 29.77 in1008.1 mb 0.00 in0.0 mm 0.00 in0.0 mm 0.00 in0.0 mm
05:15 AM 51.6°F10.9°C 44.6°F7.0°C 77% 0.2 mph E0.3 kmh E 1.6 mph2.6 kmh 29.77 in1008.1 mb 0.00 in0.0 mm 0.00 in0.0 mm 0.00 in0.0 mm
05:20 AM 51.8°F11.0°C 44.6°F7.0°C 78% Calm Calm -- 29.77 in1008.1 mb 0.00 in0.0 mm 0.00 in0.0 mm 0.00 in0.0 mm
05:25 AM 52.0°F11.1°C 44.6°F7.0°C 78% Calm Calm -- 29.77 in1008.1 mb 0.00 in0.0 mm 0.00 in0.0 mm 0.00 in0.0 mm
05:30 AM 52.0°F11.1°C 44.6°F7.0°C 78% Calm Calm -- 29.77 in1008.1 mb 0.00 in0.0 mm 0.00 in0.0 mm 0.00 in0.0 mm
05:35 AM 52.2°F11.2°C 46.4°F8.0°C 78% 0.1 mph SSE0.2 kmh SSE 1.6 mph2.6 kmh 29.77 in1008.1 mb 0.00 in0.0 mm 0.00 in0.0 mm 0.00 in0.0 mm
05:40 AM 52.3°F11.3°C 46.4°F8.0°C 78% 0.5 mph SE0.8 kmh SE 1.6 mph2.6 kmh 29.77 in1008.1 mb 0.00 in0.0 mm 0.00 in0.0 mm 0.00 in0.0 mm
05:45 AM 52.7°F11.5°C 46.4°F8.0°C 78% 1.3 mph SE2.1 kmh SE 2.5 mph4.0 kmh 29.77 in1008.1 mb 0.00 in0.0 mm 0.00 in0.0 mm 0.00 in0.0 mm
05:50 AM 52.9°F11.6°C 46.4°F8.0°C 78% 1.1 mph SE1.8 kmh SE 2.5 mph4.0 kmh 29.77 in1008.1 mb 0.00 in0.0 mm 0.00 in0.0 mm 0.00 in0.0 mm
05:55 AM 53.1°F11.7°C 46.4°F8.0°C 78% 0.7 mph SE1.1 kmh SE 1.6 mph2.6 kmh 29.77 in1008.1 mb 0.00 in0.0 mm 0.00 in0.0 mm 0.00 in0.0 mm
06:00 AM 53.2°F11.8°C 46.4°F8.0°C 78% 0.5 mph SSE0.8 kmh SSE 1.3 mph2.1 kmh 29.77 in1008.1 mb 0.00 in0.0 mm 0.00 in0.0 mm 0.00 in0.0 mm
06:05 AM 53.4°F11.9°C 46.4°F8.0°C 78% 0.7 mph SE1.1 kmh SE 2.5 mph4.0 kmh 29.77 in1008.1 mb 0.00 in0.0 mm 0.00 in0.0 mm 0.00 in0.0 mm
06:10 AM 53.6°F12.0°C 48.2°F9.0°C 78% 1.0 mph SSE1.6 kmh SSE 2.5 mph4.0 kmh 29.77 in1008.1 mb 0.00 in0.0 mm 0.00 in0.0 mm 0.00 in0.0 mm
06:15 AM 53.8°F12.1°C 48.2°F9.0°C 78% 1.1 mph S1.8 kmh S 2.5 mph4.0 kmh 29.77 in1008.1 mb 0.00 in0.0 mm 0.00 in0.0 mm 0.00 in0.0 mm
06:20 AM 54.0°F12.2°C 48.2°F9.0°C 78% 2.1 mph S3.4 kmh S 4.9 mph7.9 kmh 29.77 in1008.1 mb 0.00 in0.0 mm 0.00 in0.0 mm 0.00 in0.0 mm
06:25 AM 54.3°F12.4°C 48.2°F9.0°C 78% 2.9 mph SSE4.7 kmh SSE 4.9 mph7.9 kmh 29.74 in1007.1 mb 0.00 in0.0 mm 0.00 in0.0 mm 0.00 in0.0 mm
06:30 AM 54.5°F12.5°C 48.2°F9.0°C 78% 2.8 mph SSE4.5 kmh SSE 4.0 mph6.4 kmh 29.74 in1007.1 mb 0.00 in0.0 mm 0.00 in0.0 mm 0.00 in0.0 mm
06:35 AM 54.5°F12.5°C 48.2°F9.0°C 78% 2.0 mph SSE3.2 kmh SSE 3.6 mph5.8 kmh 29.74 in1007.1 mb 0.00 in0.0 mm 0.00 in0.0 mm 0.00 in0.0 mm
06:40 AM 54.7°F12.6°C 48.2°F9.0°C 78% 2.1 mph S3.4 kmh S 3.4 mph5.5 kmh 29.77 in1008.1 mb 0.00 in0.0 mm 0.00 in0.0 mm 0.00 in0.0 mm
06:45 AM 55.2°F12.9°C 48.2°F9.0°C 78% 3.3 mph S5.3 kmh S 6.3 mph10.1 kmh 29.77 in1008.1 mb 0.00 in0.0 mm 0.00 in0.0 mm 0.00 in0.0 mm
06:50 AM 55.6°F13.1°C 48.2°F9.0°C 78% 4.1 mph S6.6 kmh S 6.5 mph10.5 kmh 29.77 in1008.1 mb 0.00 in0.0 mm 0.00 in0.0 mm 0.00 in0.0 mm
06:55 AM 55.9°F13.3°C 50.0°F10.0°C 78% 4.1 mph S6.6 kmh S 7.4 mph11.9 kmh 29.74 in1007.1 mb 0.00 in0.0 mm 0.00 in0.0 mm 0.00 in0.0 mm
07:00 AM 56.1°F13.4°C 50.0°F10.0°C 78% 4.5 mph S7.2 kmh S 8.5 mph13.7 kmh 29.74 in1007.1 mb 0.00 in0.0 mm 0.00 in0.0 mm 0.00 in0.0 mm
07:05 AM 56.3°F13.5°C 50.0°F10.0°C 78% 4.8 mph S7.7 kmh S 8.5 mph13.7 kmh 29.74 in1007.1 mb 0.00 in0.0 mm 0.00 in0.0 mm 0.00 in0.0 mm
07:10 AM 56.7°F13.7°C 50.0°F10.0°C 77% 5.1 mph S8.2 kmh S 7.4 mph11.9 kmh 29.74 in1007.1 mb 0.00 in0.0 mm 0.00 in0.0 mm 0.00 in0.0 mm
07:15 AM 57.0°F13.9°C 50.0°F10.0°C 77% 5.5 mph S8.9 kmh S 7.8 mph12.6 kmh 29.74 in1007.1 mb 0.00 in0.0 mm 0.00 in0.0 mm 0.00 in0.0 mm
07:20 AM 57.2°F14.0°C 50.0°F10.0°C 77% 6.2 mph S10.0 kmh S 8.7 mph14.0 kmh 29.74 in1007.1 mb 0.00 in0.0 mm 0.00 in0.0 mm 0.00 in0.0 mm
07:25 AM 57.2°F14.0°C 50.0°F10.0°C 78% 5.9 mph S9.5 kmh S 8.7 mph14.0 kmh 29.74 in1007.1 mb 0.00 in0.0 mm 0.00 in0.0 mm 0.00 in0.0 mm
07:30 AM 57.2°F14.0°C 50.0°F10.0°C 78% 4.2 mph S6.8 kmh S 7.4 mph11.9 kmh 29.74 in1007.1 mb 0.00 in0.0 mm 0.00 in0.0 mm 0.00 in0.0 mm
07:35 AM 57.4°F14.1°C 50.0°F10.0°C 78% 3.9 mph S6.3 kmh S 7.4 mph11.9 kmh 29.74 in1007.1 mb 0.00 in0.0 mm 0.00 in0.0 mm 0.00 in0.0 mm
07:40 AM 57.4°F14.1°C 50.0°F10.0°C 78% 5.1 mph S8.2 kmh S 13.9 mph22.4 kmh 29.74 in1007.1 mb 0.00 in0.0 mm 0.00 in0.0 mm 0.00 in0.0 mm
07:45 AM 57.7°F14.3°C 51.8°F11.0°C 77% 5.5 mph S8.9 kmh S 13.9 mph22.4 kmh 29.74 in1007.1 mb 0.00 in0.0 mm 0.00 in0.0 mm 0.00 in0.0 mm
07:50 AM 57.7°F14.3°C 51.8°F11.0°C 77% 5.8 mph S9.3 kmh S 7.8 mph12.6 kmh 29.74 in1007.1 mb 0.00 in0.0 mm 0.00 in0.0 mm 0.00 in0.0 mm
07:55 AM 57.9°F14.4°C 51.8°F11.0°C 77% 6.7 mph S10.8 kmh S 9.6 mph15.4 kmh 29.74 in1007.1 mb 0.00 in0.0 mm 0.00 in0.0 mm 0.00 in0.0 mm
08:00 AM 57.9°F14.4°C 51.8°F11.0°C 77% 7.1 mph S11.4 kmh S 9.6 mph15.4 kmh 29.74 in1007.1 mb 0.00 in0.0 mm 0.00 in0.0 mm 0.00 in0.0 mm
08:05 AM 58.1°F14.5°C 51.8°F11.0°C 77% 6.3 mph S10.1 kmh S 9.6 mph15.4 kmh 29.74 in1007.1 mb 0.00 in0.0 mm 0.00 in0.0 mm 0.00 in0.0 mm
08:10 AM 58.3°F14.6°C 51.8°F11.0°C 77% 5.5 mph S8.9 kmh S 10.5 mph16.9 kmh 29.71 in1006.1 mb 0.00 in0.0 mm 0.00 in0.0 mm 0.00 in0.0 mm
08:15 AM 58.3°F14.6°C 51.8°F11.0°C 77% 6.1 mph S9.8 kmh S 10.5 mph16.9 kmh 29.71 in1006.1 mb 0.00 in0.0 mm 0.00 in0.0 mm 0.00 in0.0 mm
08:20 AM 58.5°F14.7°C 51.8°F11.0°C 77% 6.2 mph S10.0 kmh S 10.5 mph16.9 kmh 29.71 in1006.1 mb 0.00 in0.0 mm 0.00 in0.0 mm 0.00 in0.0 mm
08:25 AM 58.6°F14.8°C 51.8°F11.0°C 77% 6.1 mph S9.8 kmh S 9.6 mph15.4 kmh 29.71 in1006.1 mb 0.00 in0.0 mm 0.00 in0.0 mm 0.00 in0.0 mm
08:30 AM 58.6°F14.8°C 51.8°F11.0°C 77% 5.9 mph S9.5 kmh S 9.8 mph15.8 kmh 29.71 in1006.1 mb 0.00 in0.0 mm 0.00 in0.0 mm 0.00 in0.0 mm
08:35 AM 58.6°F14.8°C 51.8°F11.0°C 77% 6.7 mph S10.8 kmh S 10.3 mph16.6 kmh 29.71 in1006.1 mb 0.00 in0.0 mm 0.00 in0.0 mm 0.00 in0.0 mm
08:40 AM 58.8°F14.9°C 51.8°F11.0°C 77% 5.6 mph S9.0 kmh S 10.3 mph16.6 kmh 29.71 in1006.1 mb 0.00 in0.0 mm 0.00 in0.0 mm 0.00 in0.0 mm
08:45 AM 58.8°F14.9°C 51.8°F11.0°C 77% 5.0 mph S8.0 kmh S 8.5 mph13.7 kmh 29.71 in1006.1 mb 0.00 in0.0 mm 0.00 in0.0 mm 0.00 in0.0 mm
08:50 AM 59.0°F15.0°C 51.8°F11.0°C 77% 5.7 mph SSE9.2 kmh SSE 8.5 mph13.7 kmh 29.71 in1006.1 mb 0.00 in0.0 mm 0.00 in0.0 mm 0.00 in0.0 mm
08:55 AM 59.0°F15.0°C 51.8°F11.0°C 77% 5.8 mph SSE9.3 kmh SSE 6.5 mph10.5 kmh 29.71 in1006.1 mb 0.00 in0.0 mm 0.00 in0.0 mm 0.00 in0.0 mm
09:00 AM 59.0°F15.0°C 51.8°F11.0°C 77% 5.5 mph SSE8.9 kmh SSE 6.5 mph10.5 kmh 29.71 in1006.1 mb 0.00 in0.0 mm 0.00 in0.0 mm 0.00 in0.0 mm
09:05 AM 59.2°F15.1°C 51.8°F11.0°C 77% 5.0 mph S8.0 kmh S 8.7 mph14.0 kmh 29.71 in1006.1 mb 0.00 in0.0 mm 0.00 in0.0 mm 0.00 in0.0 mm
09:10 AM 59.2°F15.1°C 51.8°F11.0°C 77% 6.6 mph S10.6 kmh S 11.2 mph18.0 kmh 29.68 in1005.1 mb 0.00 in0.0 mm 0.00 in0.0 mm 0.00 in0.0 mm
09:15 AM 59.2°F15.1°C 51.8°F11.0°C 78% 7.4 mph SSE11.9 kmh SSE 11.2 mph18.0 kmh 29.68 in1005.1 mb 0.00 in0.0 mm 0.00 in0.0 mm 0.00 in0.0 mm
09:20 AM 59.2°F15.1°C 51.8°F11.0°C 78% 6.9 mph S11.1 kmh S 11.0 mph17.7 kmh 29.68 in1005.1 mb 0.00 in0.0 mm 0.00 in0.0 mm 0.00 in0.0 mm
09:25 AM 59.2°F15.1°C 51.8°F11.0°C 78% 6.8 mph S10.9 kmh S 10.1 mph16.3 kmh 29.68 in1005.1 mb 0.00 in0.0 mm 0.00 in0.0 mm 0.00 in0.0 mm
09:30 AM 59.4°F15.2°C 53.6°F12.0°C 78% 6.3 mph S10.1 kmh S 11.0 mph17.7 kmh 29.68 in1005.1 mb 0.00 in0.0 mm 0.00 in0.0 mm 0.00 in0.0 mm
09:35 AM 59.4°F15.2°C 53.6°F12.0°C 78% 6.7 mph S10.8 kmh S 11.0 mph17.7 kmh 29.68 in1005.1 mb 0.00 in0.0 mm 0.00 in0.0 mm 0.00 in0.0 mm
09:40 AM 59.5°F15.3°C 53.6°F12.0°C 78% 6.8 mph S10.9 kmh S 13.0 mph20.9 kmh 29.68 in1005.1 mb 0.00 in0.0 mm 0.00 in0.0 mm 0.00 in0.0 mm
09:45 AM 59.7°F15.4°C 53.6°F12.0°C 78% 6.5 mph SSE10.5 kmh SSE 13.0 mph20.9 kmh 29.68 in1005.1 mb 0.00 in0.0 mm 0.00 in0.0 mm 0.00 in0.0 mm
09:50 AM 59.7°F15.4°C 53.6°F12.0°C 78% 6.1 mph S9.8 kmh S 8.5 mph13.7 kmh 29.68 in1005.1 mb 0.00 in0.0 mm 0.00 in0.0 mm 0.00 in0.0 mm
09:55 AM 59.9°F15.5°C 53.6°F12.0°C 79% 5.7 mph S9.2 kmh S 7.4 mph11.9 kmh 29.68 in1005.1 mb 0.00 in0.0 mm 0.00 in0.0 mm 0.00 in0.0 mm
10:00 AM 59.9°F15.5°C 53.6°F12.0°C 79% 5.2 mph S8.4 kmh S 8.1 mph13.0 kmh 29.68 in1005.1 mb 0.00 in0.0 mm 0.00 in0.0 mm 0.00 in0.0 mm
10:05 AM 60.1°F15.6°C 53.6°F12.0°C 79% 5.9 mph S9.5 kmh S 8.1 mph13.0 kmh 29.68 in1005.1 mb 0.00 in0.0 mm 0.00 in0.0 mm 0.00 in0.0 mm
10:10 AM 60.3°F15.7°C 53.6°F12.0°C 78% 6.1 mph S9.8 kmh S 10.1 mph16.3 kmh 29.68 in1005.1 mb 0.00 in0.0 mm 0.00 in0.0 mm 0.00 in0.0 mm
10:15 AM 60.3°F15.7°C 53.6°F12.0°C 78% 6.9 mph S11.1 kmh S 10.3 mph16.6 kmh 29.68 in1005.1 mb 0.00 in0.0 mm 0.00 in0.0 mm 0.00 in0.0 mm
10:20 AM 60.4°F15.8°C 53.6°F12.0°C 78% 7.5 mph SSW12.1 kmh SSW 10.3 mph16.6 kmh 29.68 in1005.1 mb 0.00 in0.0 mm 0.00 in0.0 mm 0.00 in0.0 mm
10:25 AM 60.6°F15.9°C 53.6°F12.0°C 78% 7.1 mph SSW11.4 kmh SSW 12.1 mph19.5 kmh 29.65 in1004.1 mb 0.00 in0.0 mm 0.00 in0.0 mm 0.00 in0.0 mm
10:30 AM 60.6°F15.9°C 53.6°F12.0°C 78% 7.1 mph S11.4 kmh S 12.1 mph19.5 kmh 29.65 in1004.1 mb 0.00 in0.0 mm 0.00 in0.0 mm 0.00 in0.0 mm
10:35 AM 60.8°F16.0°C 53.6°F12.0°C 78% 6.5 mph S10.5 kmh S 9.8 mph15.8 kmh 29.65 in1004.1 mb 0.00 in0.0 mm 0.00 in0.0 mm 0.00 in0.0 mm
10:40 AM 60.6°F15.9°C 53.6°F12.0°C 78% 7.7 mph S12.4 kmh S 14.8 mph23.8 kmh 29.65 in1004.1 mb 0.00 in0.0 mm 0.00 in0.0 mm 0.00 in0.0 mm
10:45 AM 60.4°F15.8°C 53.6°F12.0°C 78% 9.2 mph S14.8 kmh S 14.8 mph23.8 kmh 29.65 in1004.1 mb 0.00 in0.0 mm 0.00 in0.0 mm 0.00 in0.0 mm
10:50 AM 60.4°F15.8°C 53.6°F12.0°C 78% 7.9 mph S12.7 kmh S 11.0 mph17.7 kmh 29.65 in1004.1 mb 0.00 in0.0 mm 0.00 in0.0 mm 0.00 in0.0 mm
10:55 AM 60.6°F15.9°C 53.6°F12.0°C 78% 7.6 mph S12.2 kmh S 10.7 mph17.2 kmh 29.65 in1004.1 mb 0.00 in0.0 mm 0.00 in0.0 mm 0.00 in0.0 mm
11:00 AM 60.8°F16.0°C 53.6°F12.0°C 78% 9.3 mph SSE15.0 kmh SSE 15.4 mph24.8 kmh 29.65 in1004.1 mb 0.00 in0.0 mm 0.00 in0.0 mm 0.00 in0.0 mm
11:05 AM 61.0°F16.1°C 53.6°F12.0°C 78% 7.7 mph S12.4 kmh S 15.4 mph24.8 kmh 29.65 in1004.1 mb 0.00 in0.0 mm 0.00 in0.0 mm 0.00 in0.0 mm
11:10 AM 61.0°F16.1°C 53.6°F12.0°C 78% 5.7 mph S9.2 kmh S 7.4 mph11.9 kmh 29.65 in1004.1 mb 0.00 in0.0 mm 0.00 in0.0 mm 0.00 in0.0 mm
11:15 AM 61.0°F16.1°C 53.6°F12.0°C 78% 6.1 mph S9.8 kmh S 7.6 mph12.2 kmh 29.65 in1004.1 mb 0.00 in0.0 mm 0.00 in0.0 mm 0.00 in0.0 mm
11:20 AM 61.2°F16.2°C 55.4°F13.0°C 78% 8.8 mph S14.2 kmh S 14.3 mph23.0 kmh 29.65 in1004.1 mb 0.00 in0.0 mm 0.00 in0.0 mm 0.00 in0.0 mm
11:25 AM 61.3°F16.3°C 55.4°F13.0°C 78% 9.5 mph S15.3 kmh S 14.3 mph23.0 kmh 29.65 in1004.1 mb 0.00 in0.0 mm 0.00 in0.0 mm 0.00 in0.0 mm
11:30 AM 61.3°F16.3°C 55.4°F13.0°C 78% 7.9 mph S12.7 kmh S 13.2 mph21.2 kmh 29.65 in1004.1 mb 0.00 in0.0 mm 0.00 in0.0 mm 0.00 in0.0 mm
11:35 AM 61.3°F16.3°C 55.4°F13.0°C 77% 7.4 mph S11.9 kmh S 10.7 mph17.2 kmh 29.65 in1004.1 mb 0.00 in0.0 mm 0.00 in0.0 mm 0.00 in0.0 mm
11:40 AM 61.3°F16.3°C 55.4°F13.0°C 78% 7.1 mph S11.4 kmh S 10.7 mph17.2 kmh 29.62 in1003.0 mb 0.00 in0.0 mm 0.00 in0.0 mm 0.00 in0.0 mm
11:45 AM 61.3°F16.3°C 55.4°F13.0°C 78% 7.7 mph S12.4 kmh S 11.4 mph18.3 kmh 29.62 in1003.0 mb 0.00 in0.0 mm 0.00 in0.0 mm 0.00 in0.0 mm
11:50 AM 61.3°F16.3°C 55.4°F13.0°C 77% 7.9 mph S12.7 kmh S 11.4 mph18.3 kmh 29.62 in1003.0 mb 0.00 in0.0 mm 0.00 in0.0 mm 0.00 in0.0 mm
11:55 AM 61.3°F16.3°C 55.4°F13.0°C 77% 9.0 mph S14.5 kmh S 15.9 mph25.6 kmh 29.62 in1003.0 mb 0.00 in0.0 mm 0.00 in0.0 mm 0.00 in0.0 mm
12:00 PM 61.3°F16.3°C 55.4°F13.0°C 77% 10.6 mph S17.1 kmh S 17.2 mph27.7 kmh 29.62 in1003.0 mb 0.00 in0.0 mm 0.00 in0.0 mm 0.00 in0.0 mm
12:05 PM 61.2°F16.2°C 55.4°F13.0°C 78% 11.5 mph S18.5 kmh S 17.2 mph27.7 kmh 29.62 in1003.0 mb 0.00 in0.0 mm 0.00 in0.0 mm 0.00 in0.0 mm
12:10 PM 61.2°F16.2°C 55.4°F13.0°C 78% 9.4 mph S15.1 kmh S 15.4 mph24.8 kmh 29.62 in1003.0 mb 0.00 in0.0 mm 0.00 in0.0 mm 0.00 in0.0 mm
12:15 PM 61.0°F16.1°C 53.6°F12.0°C 78% 8.8 mph S14.2 kmh S 14.5 mph23.3 kmh 29.62 in1003.0 mb 0.00 in0.0 mm 0.00 in0.0 mm 0.00 in0.0 mm
12:20 PM 60.8°F16.0°C 53.6°F12.0°C 78% 8.9 mph S14.3 kmh S 13.2 mph21.2 kmh 29.62 in1003.0 mb 0.00 in0.0 mm 0.00 in0.0 mm 0.00 in0.0 mm
12:25 PM 60.8°F16.0°C 55.4°F13.0°C 79% 6.8 mph S10.9 kmh S 9.8 mph15.8 kmh 29.62 in1003.0 mb 0.00 in0.0 mm 0.00 in0.0 mm 0.00 in0.0 mm
12:30 PM 60.6°F15.9°C 55.4°F13.0°C 79% 7.5 mph S12.1 kmh S 11.4 mph18.3 kmh 29.62 in1003.0 mb 0.00 in0.0 mm 0.00 in0.0 mm 0.00 in0.0 mm
12:35 PM 60.6°F15.9°C 55.4°F13.0°C 79% 8.2 mph SSE13.2 kmh SSE 11.9 mph19.2 kmh 29.62 in1003.0 mb 0.00 in0.0 mm 0.00 in0.0 mm 0.00 in0.0 mm
12:40 PM 60.4°F15.8°C 53.6°F12.0°C 79% 7.2 mph SSE11.6 kmh SSE 11.9 mph19.2 kmh 29.62 in1003.0 mb 0.00 in0.0 mm 0.00 in0.0 mm 0.00 in0.0 mm
12:45 PM 60.4°F15.8°C 55.4°F13.0°C 80% 7.3 mph S11.7 kmh S 10.5 mph16.9 kmh 29.62 in1003.0 mb 0.00 in0.0 mm 0.00 in0.0 mm 0.00 in0.0 mm
12:50 PM 60.4°F15.8°C 55.4°F13.0°C 80% 7.2 mph S11.6 kmh S 10.5 mph16.9 kmh 29.62 in1003.0 mb 0.00 in0.0 mm 0.00 in0.0 mm 0.00 in0.0 mm
12:55 PM 60.4°F15.8°C 55.4°F13.0°C 80% 7.1 mph S11.4 kmh S 15.2 mph24.5 kmh 29.59 in1002.0 mb 0.00 in0.0 mm 0.00 in0.0 mm 0.00 in0.0 mm
01:00 PM 60.4°F15.8°C 55.4°F13.0°C 80% 7.1 mph S11.4 kmh S 15.2 mph24.5 kmh 29.59 in1002.0 mb 0.06 in1.5 mm 0.07 in1.8 mm 0.06 in1.5 mm
01:05 PM 60.4°F15.8°C 55.4°F13.0°C 80% 7.5 mph SSE12.1 kmh SSE 11.2 mph18.0 kmh 29.59 in1002.0 mb 0.06 in1.5 mm 0.00 in0.0 mm 0.06 in1.5 mm
01:10 PM 60.4°F15.8°C 55.4°F13.0°C 80% 8.2 mph SSE13.2 kmh SSE 12.5 mph20.1 kmh 29.59 in1002.0 mb 0.06 in1.5 mm 0.00 in0.0 mm 0.06 in1.5 mm
01:15 PM 60.4°F15.8°C 55.4°F13.0°C 81% 6.6 mph SSE10.6 kmh SSE 12.5 mph20.1 kmh 29.59 in1002.0 mb 0.06 in1.5 mm 0.00 in0.0 mm 0.06 in1.5 mm
01:20 PM 60.4°F15.8°C 55.4°F13.0°C 81% 7.4 mph S11.9 kmh S 12.5 mph20.1 kmh 29.59 in1002.0 mb 0.06 in1.5 mm 0.00 in0.0 mm 0.06 in1.5 mm
01:25 PM 60.4°F15.8°C 55.4°F13.0°C 81% 9.6 mph S15.4 kmh S 18.8 mph30.3 kmh 29.59 in1002.0 mb 0.06 in1.5 mm 0.00 in0.0 mm 0.06 in1.5 mm
01:30 PM 60.4°F15.8°C 55.4°F13.0°C 81% 9.0 mph S14.5 kmh S 18.8 mph30.3 kmh 29.59 in1002.0 mb 0.06 in1.5 mm 0.00 in0.0 mm 0.06 in1.5 mm
01:35 PM 60.4°F15.8°C 55.4°F13.0°C 81% 7.8 mph S12.6 kmh S 10.7 mph17.2 kmh 29.59 in1002.0 mb 0.06 in1.5 mm 0.00 in0.0 mm 0.06 in1.5 mm
01:40 PM 60.3°F15.7°C 55.4°F13.0°C 81% 7.8 mph S12.6 kmh S 10.7 mph17.2 kmh 29.59 in1002.0 mb 0.06 in1.5 mm 0.00 in0.0 mm 0.06 in1.5 mm
01:45 PM 60.3°F15.7°C 55.4°F13.0°C 81% 6.7 mph S10.8 kmh S 10.7 mph17.2 kmh 29.59 in1002.0 mb 0.06 in1.5 mm 0.00 in0.0 mm 0.06 in1.5 mm
01:50 PM 60.1°F15.6°C 55.4°F13.0°C 81% 7.3 mph SSW11.7 kmh SSW 12.5 mph20.1 kmh 29.59 in1002.0 mb 0.06 in1.5 mm 0.00 in0.0 mm 0.06 in1.5 mm
01:55 PM 60.1°F15.6°C 55.4°F13.0°C 82% 8.4 mph S13.5 kmh S 12.5 mph20.1 kmh 29.56 in1001.0 mb 0.06 in1.5 mm 0.00 in0.0 mm 0.06 in1.5 mm
02:00 PM 60.1°F15.6°C 55.4°F13.0°C 82% 7.2 mph SSE11.6 kmh SSE 12.5 mph20.1 kmh 29.56 in1001.0 mb 0.00 in0.0 mm 0.00 in0.0 mm 0.06 in1.5 mm
02:05 PM 59.9°F15.5°C 55.4°F13.0°C 82% 6.7 mph S10.8 kmh S 12.5 mph20.1 kmh 29.56 in1001.0 mb 0.00 in0.0 mm 0.00 in0.0 mm 0.06 in1.5 mm
02:10 PM 59.9°F15.5°C 55.4°F13.0°C 82% 7.6 mph S12.2 kmh S 12.5 mph20.1 kmh 29.56 in1001.0 mb 0.00 in0.0 mm 0.00 in0.0 mm 0.06 in1.5 mm
02:15 PM 59.9°F15.5°C 55.4°F13.0°C 82% 7.8 mph S12.6 kmh S 12.3 mph19.8 kmh 29.56 in1001.0 mb 0.06 in1.5 mm 0.72 in18.3 mm 0.11 in2.8 mm
02:20 PM 59.9°F15.5°C 55.4°F13.0°C 83% 7.7 mph S12.4 kmh S 12.3 mph19.8 kmh 29.56 in1001.0 mb 0.06 in1.5 mm 0.00 in0.0 mm 0.11 in2.8 mm
02:25 PM 59.9°F15.5°C 55.4°F13.0°C 83% 7.3 mph S11.7 kmh S 10.5 mph16.9 kmh 29.56 in1001.0 mb 0.06 in1.5 mm 0.00 in0.0 mm 0.11 in2.8 mm
02:30 PM 59.9°F15.5°C 55.4°F13.0°C 83% 8.6 mph S13.8 kmh S 12.8 mph20.6 kmh 29.56 in1001.0 mb 0.06 in1.5 mm 0.00 in0.0 mm 0.11 in2.8 mm
02:35 PM 59.9°F15.5°C 55.4°F13.0°C 83% 8.2 mph S13.2 kmh S 12.8 mph20.6 kmh 29.56 in1001.0 mb 0.06 in1.5 mm 0.00 in0.0 mm 0.11 in2.8 mm
02:40 PM 59.9°F15.5°C 55.4°F13.0°C 83% 6.5 mph S10.5 kmh S 9.8 mph15.8 kmh 29.56 in1001.0 mb 0.06 in1.5 mm 0.00 in0.0 mm 0.11 in2.8 mm
02:45 PM 59.9°F15.5°C 55.4°F13.0°C 83% 6.6 mph S10.6 kmh S 9.6 mph15.4 kmh 29.56 in1001.0 mb 0.06 in1.5 mm 0.00 in0.0 mm 0.11 in2.8 mm
02:50 PM 59.9°F15.5°C 55.4°F13.0°C 83% 7.5 mph S12.1 kmh S 10.7 mph17.2 kmh 29.56 in1001.0 mb 0.06 in1.5 mm 0.00 in0.0 mm 0.11 in2.8 mm
02:55 PM 59.9°F15.5°C 55.4°F13.0°C 83% 7.8 mph S12.6 kmh S 12.5 mph20.1 kmh 29.53 in1000.0 mb 0.11 in2.8 mm 0.60 in15.2 mm 0.17 in4.3 mm
03:00 PM 59.9°F15.5°C 55.4°F13.0°C 83% 8.3 mph S13.4 kmh S 12.5 mph20.1 kmh 29.53 in1000.0 mb 0.11 in2.8 mm 0.00 in0.0 mm 0.17 in4.3 mm
03:05 PM 59.9°F15.5°C 55.4°F13.0°C 83% 7.7 mph S12.4 kmh S 12.3 mph19.8 kmh 29.53 in1000.0 mb 0.11 in2.8 mm 0.00 in0.0 mm 0.17 in4.3 mm
03:10 PM 59.9°F15.5°C 55.4°F13.0°C 83% 7.1 mph S11.4 kmh S 12.3 mph19.8 kmh 29.53 in1000.0 mb 0.11 in2.8 mm 0.00 in0.0 mm 0.17 in4.3 mm
03:15 PM 59.9°F15.5°C 55.4°F13.0°C 84% 6.8 mph S10.9 kmh S 9.8 mph15.8 kmh 29.53 in1000.0 mb 0.06 in1.5 mm 0.00 in0.0 mm 0.17 in4.3 mm
03:20 PM 59.9°F15.5°C 55.4°F13.0°C 83% 7.8 mph SSE12.6 kmh SSE 12.5 mph20.1 kmh 29.53 in1000.0 mb 0.06 in1.5 mm 0.00 in0.0 mm 0.17 in4.3 mm
03:25 PM 59.9°F15.5°C 55.4°F13.0°C 84% 8.3 mph S13.4 kmh S 12.5 mph20.1 kmh 29.53 in1000.0 mb 0.06 in1.5 mm 0.00 in0.0 mm 0.17 in4.3 mm
03:30 PM 59.9°F15.5°C 55.4°F13.0°C 84% 7.7 mph S12.4 kmh S 10.5 mph16.9 kmh 29.53 in1000.0 mb 0.06 in1.5 mm 0.00 in0.0 mm 0.17 in4.3 mm
03:35 PM 59.9°F15.5°C 55.4°F13.0°C 84% 8.4 mph SSW13.5 kmh SSW 11.0 mph17.7 kmh 29.53 in1000.0 mb 0.06 in1.5 mm 0.00 in0.0 mm 0.17 in4.3 mm
03:40 PM 59.7°F15.4°C 55.4°F13.0°C 84% 8.0 mph S12.9 kmh S 11.4 mph18.3 kmh 29.53 in1000.0 mb 0.06 in1.5 mm 0.00 in0.0 mm 0.17 in4.3 mm
03:45 PM 59.7°F15.4°C 55.4°F13.0°C 84% 7.2 mph SSE11.6 kmh SSE 11.4 mph18.3 kmh 29.53 in1000.0 mb 0.06 in1.5 mm 0.00 in0.0 mm 0.17 in4.3 mm
03:50 PM 59.7°F15.4°C 55.4°F13.0°C 84% 6.7 mph S10.8 kmh S 9.6 mph15.4 kmh 29.53 in1000.0 mb 0.06 in1.5 mm 0.00 in0.0 mm 0.17 in4.3 mm
03:55 PM 59.7°F15.4°C 55.4°F13.0°C 84% 6.9 mph S11.1 kmh S 9.6 mph15.4 kmh 29.50 in999.0 mb 0.00 in0.0 mm 0.00 in0.0 mm 0.17 in4.3 mm
04:00 PM 59.7°F15.4°C 55.4°F13.0°C 84% 7.5 mph S12.1 kmh S 10.1 mph16.3 kmh 29.50 in999.0 mb 0.06 in1.5 mm 0.07 in1.8 mm 0.22 in5.6 mm
04:05 PM 59.7°F15.4°C 55.4°F13.0°C 84% 7.6 mph S12.2 kmh S 10.1 mph16.3 kmh 29.50 in999.0 mb 0.06 in1.5 mm 0.00 in0.0 mm 0.22 in5.6 mm
04:10 PM 59.7°F15.4°C 55.4°F13.0°C 84% 7.7 mph S12.4 kmh S 17.0 mph27.4 kmh 29.50 in999.0 mb 0.06 in1.5 mm 0.00 in0.0 mm 0.22 in5.6 mm
04:15 PM 59.7°F15.4°C 55.4°F13.0°C 85% 7.6 mph S12.2 kmh S 17.0 mph27.4 kmh 29.50 in999.0 mb 0.06 in1.5 mm 0.00 in0.0 mm 0.22 in5.6 mm
04:20 PM 59.7°F15.4°C 55.4°F13.0°C 85% 7.1 mph S11.4 kmh S 10.3 mph16.6 kmh 29.50 in999.0 mb 0.06 in1.5 mm 0.00 in0.0 mm 0.22 in5.6 mm
04:25 PM 59.7°F15.4°C 55.4°F13.0°C 85% 6.8 mph S10.9 kmh S 10.3 mph16.6 kmh 29.50 in999.0 mb 0.06 in1.5 mm 0.00 in0.0 mm 0.22 in5.6 mm
04:30 PM 59.7°F15.4°C 55.4°F13.0°C 85% 8.1 mph S13.0 kmh S 15.2 mph24.5 kmh 29.50 in999.0 mb 0.06 in1.5 mm 0.00 in0.0 mm 0.22 in5.6 mm
04:35 PM 59.7°F15.4°C 55.4°F13.0°C 85% 8.9 mph S14.3 kmh S 15.2 mph24.5 kmh 29.50 in999.0 mb 0.06 in1.5 mm 0.00 in0.0 mm 0.22 in5.6 mm
04:40 PM 59.7°F15.4°C 55.4°F13.0°C 85% 6.9 mph SSW11.1 kmh SSW 10.7 mph17.2 kmh 29.50 in999.0 mb 0.06 in1.5 mm 0.00 in0.0 mm 0.22 in5.6 mm
04:45 PM 59.7°F15.4°C 55.4°F13.0°C 85% 5.5 mph SSW8.9 kmh SSW 7.8 mph12.6 kmh 29.50 in999.0 mb 0.13 in3.3 mm 0.84 in21.3 mm 0.29 in7.4 mm
04:50 PM 59.7°F15.4°C 55.4°F13.0°C 86% 5.1 mph S8.2 kmh S 7.8 mph12.6 kmh 29.50 in999.0 mb 0.13 in3.3 mm 0.00 in0.0 mm 0.29 in7.4 mm
04:55 PM 59.9°F15.5°C 55.4°F13.0°C 86% 6.0 mph S9.7 kmh S 10.1 mph16.3 kmh 29.50 in999.0 mb 0.13 in3.3 mm 0.00 in0.0 mm 0.29 in7.4 mm
05:00 PM 59.9°F15.5°C 55.4°F13.0°C 86% 5.9 mph SSE9.5 kmh SSE 10.1 mph16.3 kmh 29.50 in999.0 mb 0.07 in1.8 mm 0.00 in0.0 mm 0.29 in7.4 mm
05:05 PM 59.9°F15.5°C 55.4°F13.0°C 86% 5.3 mph SSE8.5 kmh SSE 10.1 mph16.3 kmh 29.50 in999.0 mb 0.07 in1.8 mm 0.00 in0.0 mm 0.29 in7.4 mm
05:10 PM 60.1°F15.6°C 55.4°F13.0°C 86% 5.4 mph S8.7 kmh S 6.5 mph10.5 kmh 29.47 in998.0 mb 0.07 in1.8 mm 0.00 in0.0 mm 0.29 in7.4 mm
05:15 PM 60.1°F15.6°C 55.4°F13.0°C 86% 5.6 mph S9.0 kmh S 8.5 mph13.7 kmh 29.47 in998.0 mb 0.07 in1.8 mm 0.00 in0.0 mm 0.29 in7.4 mm
05:20 PM 60.1°F15.6°C 55.4°F13.0°C 86% 5.5 mph S8.9 kmh S 8.5 mph13.7 kmh 29.47 in998.0 mb 0.07 in1.8 mm 0.00 in0.0 mm 0.29 in7.4 mm
05:25 PM 60.1°F15.6°C 55.4°F13.0°C 86% 6.2 mph S10.0 kmh S 8.1 mph13.0 kmh 29.47 in998.0 mb 0.07 in1.8 mm 0.00 in0.0 mm 0.29 in7.4 mm
05:30 PM 60.1°F15.6°C 55.4°F13.0°C 86% 7.1 mph S11.4 kmh S 8.1 mph13.0 kmh 29.47 in998.0 mb 0.07 in1.8 mm 0.00 in0.0 mm 0.29 in7.4 mm
05:45 PM 60.1°F15.6°C 55.4°F13.0°C 86% 4.6 mph S7.4 kmh S 6.7 mph10.8 kmh 29.47 in998.0 mb 0.00 in0.0 mm 0.00 in0.0 mm 0.29 in7.4 mm
05:50 PM 60.1°F15.6°C 57.2°F14.0°C 87% 4.9 mph S7.9 kmh S 8.7 mph14.0 kmh 29.47 in998.0 mb 0.00 in0.0 mm 0.00 in0.0 mm 0.29 in7.4 mm
06:00 PM 60.1°F15.6°C 57.2°F14.0°C 87% 6.7 mph S10.8 kmh S 8.7 mph14.0 kmh 29.47 in998.0 mb 0.06 in1.5 mm 0.07 in1.8 mm 0.35 in8.9 mm
06:05 PM 60.1°F15.6°C 57.2°F14.0°C 87% 5.3 mph S8.5 kmh S 8.7 mph14.0 kmh 29.47 in998.0 mb 0.06 in1.5 mm 0.00 in0.0 mm 0.35 in8.9 mm
06:10 PM 60.1°F15.6°C 57.2°F14.0°C 87% 4.0 mph S6.4 kmh S 5.8 mph9.3 kmh 29.45 in997.3 mb 0.06 in1.5 mm 0.00 in0.0 mm 0.35 in8.9 mm
06:15 PM 60.1°F15.6°C 57.2°F14.0°C 87% 5.0 mph S8.0 kmh S 7.8 mph12.6 kmh 29.45 in997.3 mb 0.06 in1.5 mm 0.00 in0.0 mm 0.35 in8.9 mm
06:20 PM 60.3°F15.7°C 57.2°F14.0°C 87% 5.3 mph SSE8.5 kmh SSE 7.8 mph12.6 kmh 29.45 in997.3 mb 0.06 in1.5 mm 0.00 in0.0 mm 0.35 in8.9 mm
06:25 PM 60.3°F15.7°C 57.2°F14.0°C 87% 5.3 mph S8.5 kmh S 8.7 mph14.0 kmh 29.45 in997.3 mb 0.06 in1.5 mm 0.00 in0.0 mm 0.35 in8.9 mm
06:30 PM 60.4°F15.8°C 57.2°F14.0°C 87% 5.6 mph S9.0 kmh S 8.7 mph14.0 kmh 29.45 in997.3 mb 0.06 in1.5 mm 0.00 in0.0 mm 0.35 in8.9 mm
06:35 PM 60.6°F15.9°C 57.2°F14.0°C 87% 5.6 mph S9.0 kmh S 11.4 mph18.3 kmh 29.45 in997.3 mb 0.06 in1.5 mm 0.00 in0.0 mm 0.35 in8.9 mm
06:40 PM 60.4°F15.8°C 57.2°F14.0°C 87% 5.5 mph S8.9 kmh S 11.4 mph18.3 kmh 29.45 in997.3 mb 0.06 in1.5 mm 0.00 in0.0 mm 0.35 in8.9 mm
06:45 PM 60.4°F15.8°C 57.2°F14.0°C 87% 5.6 mph S9.0 kmh S 8.5 mph13.7 kmh 29.45 in997.3 mb 0.06 in1.5 mm 0.00 in0.0 mm 0.35 in8.9 mm
06:50 PM 60.4°F15.8°C 57.2°F14.0°C 87% 6.5 mph S10.5 kmh S 12.1 mph19.5 kmh 29.45 in997.3 mb 0.06 in1.5 mm 0.00 in0.0 mm 0.35 in8.9 mm
06:55 PM 60.4°F15.8°C 57.2°F14.0°C 87% 6.8 mph S10.9 kmh S 12.3 mph19.8 kmh 29.45 in997.3 mb 0.06 in1.5 mm 0.00 in0.0 mm 0.35 in8.9 mm
07:00 PM 60.4°F15.8°C 57.2°F14.0°C 87% 7.4 mph S11.9 kmh S 12.3 mph19.8 kmh 29.45 in997.3 mb 0.00 in0.0 mm 0.00 in0.0 mm 0.35 in8.9 mm
07:05 PM 60.4°F15.8°C 57.2°F14.0°C 87% 6.5 mph S10.5 kmh S 9.8 mph15.8 kmh 29.45 in997.3 mb 0.00 in0.0 mm 0.00 in0.0 mm 0.35 in8.9 mm
07:10 PM 60.4°F15.8°C 57.2°F14.0°C 87% 5.3 mph S8.5 kmh S 7.6 mph12.2 kmh 29.45 in997.3 mb 0.00 in0.0 mm 0.00 in0.0 mm 0.35 in8.9 mm
07:15 PM 60.4°F15.8°C 57.2°F14.0°C 88% 5.2 mph S8.4 kmh S 7.8 mph12.6 kmh 29.45 in997.3 mb 0.00 in0.0 mm 0.00 in0.0 mm 0.35 in8.9 mm
07:20 PM 60.4°F15.8°C 57.2°F14.0°C 88% 5.4 mph S8.7 kmh S 8.1 mph13.0 kmh 29.45 in997.3 mb 0.00 in0.0 mm 0.00 in0.0 mm 0.35 in8.9 mm
07:25 PM 60.4°F15.8°C 57.2°F14.0°C 87% 5.4 mph S8.7 kmh S 8.1 mph13.0 kmh 29.41 in995.9 mb 0.00 in0.0 mm 0.00 in0.0 mm 0.35 in8.9 mm
07:30 PM 60.3°F15.7°C 57.2°F14.0°C 88% 5.0 mph S8.0 kmh S 7.6 mph12.2 kmh 29.41 in995.9 mb 0.00 in0.0 mm 0.00 in0.0 mm 0.35 in8.9 mm
07:35 PM 60.3°F15.7°C 57.2°F14.0°C 88% 6.4 mph S10.3 kmh S 12.5 mph20.1 kmh 29.41 in995.9 mb 0.00 in0.0 mm 0.00 in0.0 mm 0.35 in8.9 mm
07:40 PM 60.3°F15.7°C 57.2°F14.0°C 88% 7.0 mph S11.3 kmh S 12.5 mph20.1 kmh 29.41 in995.9 mb 0.00 in0.0 mm 0.00 in0.0 mm 0.35 in8.9 mm
07:45 PM 60.3°F15.7°C 57.2°F14.0°C 88% 5.4 mph S8.7 kmh S 8.5 mph13.7 kmh 29.41 in995.9 mb 0.00 in0.0 mm 0.00 in0.0 mm 0.35 in8.9 mm
07:50 PM 60.3°F15.7°C 57.2°F14.0°C 88% 5.4 mph S8.7 kmh S 8.7 mph14.0 kmh 29.41 in995.9 mb 0.00 in0.0 mm 0.00 in0.0 mm 0.35 in8.9 mm
07:55 PM 60.1°F15.6°C 57.2°F14.0°C 87% 6.4 mph S10.3 kmh S 11.9 mph19.2 kmh 29.41 in995.9 mb 0.00 in0.0 mm 0.00 in0.0 mm 0.35 in8.9 mm
08:00 PM 60.1°F15.6°C 57.2°F14.0°C 88% 5.5 mph SSW8.9 kmh SSW 11.9 mph19.2 kmh 29.41 in995.9 mb 0.00 in0.0 mm 0.00 in0.0 mm 0.35 in8.9 mm
08:05 PM 60.1°F15.6°C 57.2°F14.0°C 88% 4.3 mph SSW6.9 kmh SSW 7.6 mph12.2 kmh 29.41 in995.9 mb 0.00 in0.0 mm 0.00 in0.0 mm 0.35 in8.9 mm
08:10 PM 60.1°F15.6°C 57.2°F14.0°C 88% 5.1 mph S8.2 kmh S 7.6 mph12.2 kmh 29.41 in995.9 mb 0.00 in0.0 mm 0.00 in0.0 mm 0.35 in8.9 mm
08:15 PM 60.1°F15.6°C 57.2°F14.0°C 88% 4.8 mph S7.7 kmh S 6.3 mph10.1 kmh 29.41 in995.9 mb 0.00 in0.0 mm 0.00 in0.0 mm 0.35 in8.9 mm
08:20 PM 60.1°F15.6°C 57.2°F14.0°C 88% 3.9 mph SSW6.3 kmh SSW 6.0 mph9.7 kmh 29.41 in995.9 mb 0.00 in0.0 mm 0.00 in0.0 mm 0.35 in8.9 mm
08:25 PM 60.1°F15.6°C 57.2°F14.0°C 88% 4.9 mph SSW7.9 kmh SSW 7.8 mph12.6 kmh 29.41 in995.9 mb 0.00 in0.0 mm 0.00 in0.0 mm 0.35 in8.9 mm
08:30 PM 60.1°F15.6°C 57.2°F14.0°C 88% 5.1 mph S8.2 kmh S 7.8 mph12.6 kmh 29.41 in995.9 mb 0.00 in0.0 mm 0.00 in0.0 mm 0.35 in8.9 mm
08:35 PM 60.1°F15.6°C 57.2°F14.0°C 88% 5.1 mph S8.2 kmh S 9.2 mph14.8 kmh 29.41 in995.9 mb 0.00 in0.0 mm 0.00 in0.0 mm 0.35 in8.9 mm
08:40 PM 60.1°F15.6°C 57.2°F14.0°C 88% 5.4 mph S8.7 kmh S 9.2 mph14.8 kmh 29.39 in995.3 mb 0.00 in0.0 mm 0.00 in0.0 mm 0.35 in8.9 mm
08:45 PM 60.1°F15.6°C 57.2°F14.0°C 88% 5.2 mph S8.4 kmh S 10.5 mph16.9 kmh 29.39 in995.3 mb 0.00 in0.0 mm 0.00 in0.0 mm 0.35 in8.9 mm
08:50 PM 60.1°F15.6°C 57.2°F14.0°C 88% 5.8 mph SSW9.3 kmh SSW 10.5 mph16.9 kmh 29.39 in995.3 mb 0.00 in0.0 mm 0.00 in0.0 mm 0.35 in8.9 mm
08:55 PM 60.1°F15.6°C 57.2°F14.0°C 88% 6.0 mph SSW9.7 kmh SSW 7.6 mph12.2 kmh 29.39 in995.3 mb 0.00 in0.0 mm 0.00 in0.0 mm 0.35 in8.9 mm
09:00 PM 60.1°F15.6°C 57.2°F14.0°C 88% 6.1 mph S9.8 kmh S 7.4 mph11.9 kmh 29.39 in995.3 mb 0.00 in0.0 mm 0.00 in0.0 mm 0.35 in8.9 mm
09:05 PM 60.1°F15.6°C 57.2°F14.0°C 88% 6.6 mph SSW10.6 kmh SSW 9.6 mph15.4 kmh 29.39 in995.3 mb 0.00 in0.0 mm 0.00 in0.0 mm 0.35 in8.9 mm
09:10 PM 60.1°F15.6°C 57.2°F14.0°C 88% 5.9 mph SSW9.5 kmh SSW 9.6 mph15.4 kmh 29.39 in995.3 mb 0.00 in0.0 mm 0.00 in0.0 mm 0.35 in8.9 mm
09:15 PM 60.1°F15.6°C 57.2°F14.0°C 88% 6.3 mph S10.1 kmh S 10.3 mph16.6 kmh 29.39 in995.3 mb 0.00 in0.0 mm 0.00 in0.0 mm 0.35 in8.9 mm
09:20 PM 60.1°F15.6°C 57.2°F14.0°C 88% 7.3 mph S11.7 kmh S 12.1 mph19.5 kmh 29.39 in995.3 mb 0.00 in0.0 mm 0.00 in0.0 mm 0.35 in8.9 mm
09:25 PM 59.9°F15.5°C 57.2°F14.0°C 88% 6.8 mph S10.9 kmh S 12.1 mph19.5 kmh 29.39 in995.3 mb 0.00 in0.0 mm 0.00 in0.0 mm 0.35 in8.9 mm
09:30 PM 59.9°F15.5°C 57.2°F14.0°C 88% 6.9 mph S11.1 kmh S 10.1 mph16.3 kmh 29.39 in995.3 mb 0.00 in0.0 mm 0.00 in0.0 mm 0.35 in8.9 mm
09:35 PM 60.1°F15.6°C 57.2°F14.0°C 88% 7.0 mph S11.3 kmh S 8.7 mph14.0 kmh 29.39 in995.3 mb 0.00 in0.0 mm 0.00 in0.0 mm 0.35 in8.9 mm
09:40 PM 60.1°F15.6°C 57.2°F14.0°C 88% 6.6 mph S10.6 kmh S 8.7 mph14.0 kmh 29.39 in995.3 mb 0.00 in0.0 mm 0.00 in0.0 mm 0.35 in8.9 mm
09:45 PM 60.3°F15.7°C 57.2°F14.0°C 88% 5.7 mph S9.2 kmh S 7.6 mph12.2 kmh 29.39 in995.3 mb 0.00 in0.0 mm 0.00 in0.0 mm 0.35 in8.9 mm
09:50 PM 60.3°F15.7°C 57.2°F14.0°C 88% 5.1 mph S8.2 kmh S 8.1 mph13.0 kmh 29.39 in995.3 mb 0.00 in0.0 mm 0.00 in0.0 mm 0.35 in8.9 mm
09:55 PM 60.3°F15.7°C 57.2°F14.0°C 89% 6.1 mph S9.8 kmh S 10.1 mph16.3 kmh 29.39 in995.3 mb 0.00 in0.0 mm 0.00 in0.0 mm 0.35 in8.9 mm
10:00 PM 60.3°F15.7°C 57.2°F14.0°C 88% 6.7 mph S10.8 kmh S 10.7 mph17.2 kmh 29.39 in995.3 mb 0.00 in0.0 mm 0.00 in0.0 mm 0.35 in8.9 mm
10:05 PM 60.3°F15.7°C 57.2°F14.0°C 88% 6.3 mph S10.1 kmh S 10.7 mph17.2 kmh 29.39 in995.3 mb 0.00 in0.0 mm 0.00 in0.0 mm 0.35 in8.9 mm
10:10 PM 60.3°F15.7°C 57.2°F14.0°C 89% 5.7 mph SSW9.2 kmh SSW 8.5 mph13.7 kmh 29.39 in995.3 mb 0.00 in0.0 mm 0.00 in0.0 mm 0.35 in8.9 mm
10:15 PM 60.3°F15.7°C 57.2°F14.0°C 88% 6.0 mph S9.7 kmh S 8.1 mph13.0 kmh 29.39 in995.3 mb 0.00 in0.0 mm 0.00 in0.0 mm 0.35 in8.9 mm
10:20 PM 60.3°F15.7°C 57.2°F14.0°C 89% 5.7 mph S9.2 kmh S 7.8 mph12.6 kmh 29.39 in995.3 mb 0.00 in0.0 mm 0.00 in0.0 mm 0.35 in8.9 mm
10:25 PM 60.3°F15.7°C 57.2°F14.0°C 89% 5.5 mph S8.9 kmh S 7.6 mph12.2 kmh 29.36 in994.2 mb 0.00 in0.0 mm 0.00 in0.0 mm 0.35 in8.9 mm
10:30 PM 60.1°F15.6°C 57.2°F14.0°C 89% 5.7 mph S9.2 kmh S 8.1 mph13.0 kmh 29.36 in994.2 mb 0.00 in0.0 mm 0.00 in0.0 mm 0.35 in8.9 mm
10:35 PM 59.9°F15.5°C 57.2°F14.0°C 89% 4.9 mph S7.9 kmh S 8.1 mph13.0 kmh 29.36 in994.2 mb 0.00 in0.0 mm 0.00 in0.0 mm 0.35 in8.9 mm
10:40 PM 59.9°F15.5°C 57.2°F14.0°C 89% 4.0 mph S6.4 kmh S 6.0 mph9.7 kmh 29.36 in994.2 mb 0.00 in0.0 mm 0.00 in0.0 mm 0.35 in8.9 mm
10:45 PM 59.7°F15.4°C 57.2°F14.0°C 89% 4.4 mph S7.1 kmh S 7.4 mph11.9 kmh 29.36 in994.2 mb 0.00 in0.0 mm 0.00 in0.0 mm 0.35 in8.9 mm
10:50 PM 59.7°F15.4°C 57.2°F14.0°C 89% 4.8 mph S7.7 kmh S 7.4 mph11.9 kmh 29.36 in994.2 mb 0.00 in0.0 mm 0.00 in0.0 mm 0.35 in8.9 mm
10:55 PM 59.5°F15.3°C 57.2°F14.0°C 89% 4.4 mph S7.1 kmh S 6.0 mph9.7 kmh 29.36 in994.2 mb 0.00 in0.0 mm 0.00 in0.0 mm 0.35 in8.9 mm
11:00 PM 59.5°F15.3°C 57.2°F14.0°C 89% 4.7 mph S7.6 kmh S 7.6 mph12.2 kmh 29.36 in994.2 mb 0.00 in0.0 mm 0.00 in0.0 mm 0.36 in9.1 mm
11:05 PM 59.5°F15.3°C 57.2°F14.0°C 89% 5.0 mph SSW8.0 kmh SSW 8.5 mph13.7 kmh 29.36 in994.2 mb 0.00 in0.0 mm 0.00 in0.0 mm 0.36 in9.1 mm
11:10 PM 59.5°F15.3°C 57.2°F14.0°C 89% 4.7 mph S7.6 kmh S 8.5 mph13.7 kmh 29.36 in994.2 mb 0.00 in0.0 mm 0.00 in0.0 mm 0.36 in9.1 mm
11:15 PM 59.5°F15.3°C 57.2°F14.0°C 89% 4.7 mph S7.6 kmh S 8.5 mph13.7 kmh 29.36 in994.2 mb 0.00 in0.0 mm 0.00 in0.0 mm 0.36 in9.1 mm
11:20 PM 59.5°F15.3°C 57.2°F14.0°C 89% 5.0 mph S8.0 kmh S 8.9 mph14.3 kmh 29.36 in994.2 mb 0.00 in0.0 mm 0.00 in0.0 mm 0.36 in9.1 mm
11:25 PM 59.5°F15.3°C 57.2°F14.0°C 89% 5.9 mph S9.5 kmh S 9.8 mph15.8 kmh 29.36 in994.2 mb 0.00 in0.0 mm 0.00 in0.0 mm 0.36 in9.1 mm
11:30 PM 59.5°F15.3°C 57.2°F14.0°C 89% 5.8 mph S9.3 kmh S 9.8 mph15.8 kmh 29.36 in994.2 mb 0.00 in0.0 mm 0.00 in0.0 mm 0.36 in9.1 mm
11:35 PM 59.5°F15.3°C 57.2°F14.0°C 89% 5.4 mph S8.7 kmh S 7.6 mph12.2 kmh 29.36 in994.2 mb 0.00 in0.0 mm 0.00 in0.0 mm 0.36 in9.1 mm
11:40 PM 59.5°F15.3°C 57.2°F14.0°C 89% 5.6 mph S9.0 kmh S 8.7 mph14.0 kmh 29.36 in994.2 mb 0.00 in0.0 mm 0.00 in0.0 mm 0.36 in9.1 mm
11:45 PM 59.5°F15.3°C 57.2°F14.0°C 89% 5.9 mph SSW9.5 kmh SSW 8.7 mph14.0 kmh 29.36 in994.2 mb 0.00 in0.0 mm 0.00 in0.0 mm 0.36 in9.1 mm
11:50 PM 59.4°F15.2°C 57.2°F14.0°C 89% 5.0 mph SSW8.0 kmh SSW 7.8 mph12.6 kmh 29.36 in994.2 mb 0.00 in0.0 mm 0.00 in0.0 mm 0.36 in9.1 mm
11:55 PM 59.5°F15.3°C 57.2°F14.0°C 89% 4.3 mph SW6.9 kmh SW 7.8 mph12.6 kmh 29.36 in994.2 mb 0.00 in0.0 mm 0.00 in0.0 mm 0.36 in9.1 mm